LIPHEBCI

Guest
Details From LIPH - Treviso
To EBCI - Brussels South - Charleroi
Flight Number -
Tags Generated
Created
Modified
Stats Distance 424 nm / 785 km
Max Altitude 0 ft / 0 m
Waypoints 3
Social Downloads 2
Likes 0
Share VATSIM

Download

Looking for another format? Having issues loading an existing format? Contact us
Advertisement - Login to hide

Notes

Generated

Route

LIPH BFS99 EBCI

ID Type Via Altitude Latitude Longitude Leg Dist Tot Dist Heading (true) Name
O LIPH APT - 0 ft / 0 m 45.64464˚ 12.17963˚ - 0 nm - -
BFS99 FIX - 0 ft / 0 m 50.19800˚ 4.90377˚ 400 nm 400 nm 316° / 310° -
O EBCI APT - 0 ft / 0 m 50.45539˚ 4.43664˚ 23 nm 423 nm 311° / 311° -

Altitude Profile

Advertisement - Login to hide

Weather


0- 5 10 15 20 25 30 35+ Temperature / ° C

Clouds and Precipitation
Forecast for 2017-12-11 06:00 UTC. Updated 32 minutes ago

Ground ~20,000 ft ~40,000 ft Winds

LIPH

Details ICAO LIPH (TSF)
Name TREVISO
Region Italy
Timezone Europe/Rome (UTC+1.0)
Stats Elevation 59 ft / 18 m (AMSL)
Location 45.648499° 12.194136°
Runways 1
Magnetic Variation 3.151° E

METAR

LIPH 110520Z AUTO 32002KT 9999 -RA FEW021 OVC024 02/01 Q1001

Decode

TAF

TAF LIPH 102300Z 1100/1124 VRB06KT 6000 SCT030 TEMPO 1100/1103 3000 RASN BKN008 TEMPO 1103/1115 4000 RA BECMG 1110/1112 17012KT

Decode

Departure Runways

ID Width Length Bearing (true) Bearing (mag) Surface Threshold Offset Overrun Length
07 144 ft / 44 m 7,919 ft / 2,414 m 69.18° 66.03° Asphalt 254 ft / 77 m 975 ft / 297 m
25 144 ft / 44 m 7,919 ft / 2,414 m 249.20° 246.05° Asphalt 389 ft / 119 m 0 ft / 0 m

EBCI

Details ICAO EBCI (CRL)
Name Brussels South - Charleroi
Region Belgium
Timezone Europe/Brussels (UTC+1.0)
Stats Elevation 614 ft / 187 m (AMSL)
Location 50.459947° 4.453125°
Runways 1
Magnetic Variation 1.132° E

METAR

EBCI 110520Z 07013KT 6000 -RA SCT004 BKN007 03/02 Q0979 NOSIG

Decode

TAF

TAF EBCI 102320Z 1100/1206 22006KT 9999 SCT020 PROB40 TEMPO 1101/1107 3000 BR BECMG 1105/1107 08011KT BECMG 1106/1108 BKN011 PROB40 TEMPO 1107/1112 2200 RA RADZ BKN005 BECMG 1112/1114 BKN025 PROB30 TEMPO 1112/1121 3500 RA SHRA BKN014TCU BECMG 1113/1115 17010KT BECMG 1116/1118 BKN010 BECMG 1118/1120 28008KT PROB40 TEMPO 1118/1206 BKN005 PROB30 TEMPO 1121/1206 1400 SHSN BKN008TCU

Decode

Destination Runways

ID Width Length Bearing (true) Bearing (mag) Surface Threshold Offset Overrun Length
07 148 ft / 45 m 8,374 ft / 2,552 m 65.53° 64.40° Asphalt 1,476 ft / 450 m 0 ft / 0 m
25 148 ft / 45 m 8,374 ft / 2,552 m 245.55° 244.42° Asphalt 0 ft / 0 m 0 ft / 0 m

Approach Navaids

Runway Type Ident Frequency Range Bearing (true) Bearing (mag) Slope Elevation
25 Localiser IGC 110.90 MHz 18 nm / 33 km 245.54° 244.41° - 614 ft / 187 m (AMSL)
25 Glidescope IGC 110.90 MHz 10 nm / 19 km 245.54° 244.41° 3.00° 614 ft / 187 m (AMSL)

Popular Alternatives